Time;durP1;ratioP1;P1;durP2;ratioP2;P2;SDS_P1;SDS_P2;PMS_P1;PMS_P2;Temp;Humidity;BMP_temperature;BMP_pressure;BME280_temperature;BME280_humidity;BME280_pressure;Samples;Min_cycle;Max_cycle;Signal;HPM_P1;HPM_P2
2022/12/13 00:01:55;;;;;;;64.97;28.05;;;-3.70;99.90;;;;;;4942268;28;20177;-84
2022/12/13 00:04:22;;;;;;;66.30;28.15;;;-3.40;99.90;;;;;;4926108;28;20454;-84
2022/12/13 00:06:48;;;;;;;66.75;27.85;;;-3.60;99.90;;;;;;4957508;28;20487;-85
2022/12/13 00:09:14;;;;;;;61.85;27.38;;;-3.60;99.90;;;;;;4910704;28;20051;-85
2022/12/13 00:11:40;;;;;;;61.90;27.67;;;-3.60;99.90;;;;;;4926365;28;20106;-84
2022/12/13 00:14:06;;;;;;;63.53;26.60;;;-3.70;99.90;;;;;;4941506;28;20042;-84
2022/12/13 00:16:32;;;;;;;62.63;27.73;;;-3.70;99.90;;;;;;4941249;28;20139;-84
2022/12/13 00:18:58;;;;;;;55.35;25.27;;;-3.70;99.90;;;;;;4910399;28;20058;-85
2022/12/13 00:21:29;;;;;;;51.90;24.98;;;-3.70;99.90;;;;;;4957703;28;20046;-85
2022/12/13 00:23:54;;;;;;;56.88;25.38;;;-3.60;99.90;;;;;;4925973;28;20058;-84
2022/12/13 00:26:38;;;;;;;52.60;24.48;;;-3.60;99.90;;;;;;4941447;28;20410;-84
2022/12/13 00:29:05;;;;;;;52.35;25.13;;;-3.50;99.90;;;;;;4910800;28;20046;-85
2022/12/13 00:31:30;;;;;;;52.10;24.75;;;-3.50;99.90;;;;;;4925682;28;20050;-85
2022/12/13 00:33:57;;;;;;;48.95;23.75;;;-3.50;99.90;;;;;;4926414;28;20430;-85
2022/12/13 00:36:23;;;;;;;52.28;24.00;;;-3.50;99.90;;;;;;4941884;28;20055;-85
2022/12/13 00:38:59;;;;;;;48.67;23.52;;;-3.50;99.90;;;;;;4941693;28;20520;-84
2022/12/13 00:41:25;;;;;;;43.17;22.02;;;-3.40;99.90;;;;;;4942728;28;20050;-84
2022/12/13 00:43:50;;;;;;;46.20;22.83;;;-3.50;99.90;;;;;;4941906;28;20055;-84
2022/12/13 00:46:17;;;;;;;51.03;23.63;;;-3.50;99.90;;;;;;4925460;28;20096;-84
2022/12/13 00:48:44;;;;;;;44.65;23.02;;;-3.60;99.90;;;;;;4925453;28;20058;-85
2022/12/13 00:51:10;;;;;;;47.67;22.33;;;-3.60;99.90;;;;;;4941685;28;20047;-84
2022/12/13 00:53:36;;;;;;;45.22;23.20;;;-3.60;99.90;;;;;;4925517;28;20086;-84
2022/12/13 00:56:02;;;;;;;45.75;22.80;;;-3.70;99.90;;;;;;4911849;28;20466;-84
2022/12/13 00:58:27;;;;;;;47.38;24.13;;;-2.80;99.90;;;;;;4928998;28;20185;-85
2022/12/13 01:01:02;;;;;;;48.75;23.45;;;-3.80;99.90;;;;;;4929375;28;20137;-84
2022/12/13 01:03:27;;;;;;;;;;;-3.80;99.90;;;;;;4946013;28;20064;-84
2022/12/13 01:05:53;;;;;;;47.08;22.30;;;-3.80;99.90;;;;;;4960886;28;20281;-85
2022/12/13 01:08:18;;;;;;;46.65;23.35;;;-3.80;99.90;;;;;;4929015;28;20086;-84
2022/12/13 01:10:44;;;;;;;46.75;21.95;;;-3.80;99.90;;;;;;4961346;28;20533;-85
2022/12/13 01:13:10;;;;;;;45.80;22.83;;;-3.90;99.90;;;;;;4928398;28;20082;-84
2022/12/13 01:15:42;;;;;;;52.33;23.90;;;-2.60;99.90;;;;;;4913085;28;20042;-85
2022/12/13 01:18:08;;;;;;;48.10;22.38;;;-3.90;99.90;;;;;;4961026;28;20046;-85
2022/12/13 01:20:34;;;;;;;45.35;22.27;;;-2.40;99.90;;;;;;4944514;28;20047;-84
2022/12/13 01:22:59;;;;;;;47.08;23.13;;;-3.30;99.90;;;;;;4944212;28;20125;-84
2022/12/13 01:25:25;;;;;;;45.63;22.52;;;-4.00;99.90;;;;;;4928256;28;20138;-84
2022/12/13 01:27:51;;;;;;;54.25;24.10;;;-4.00;99.90;;;;;;4928488;28;20134;-85
2022/12/13 01:30:16;;;;;;;49.05;23.73;;;-3.90;99.90;;;;;;4928603;28;20042;-84
2022/12/13 01:32:42;;;;;;;49.58;23.17;;;-4.00;99.90;;;;;;4960989;28;20130;-84
2022/12/13 01:35:08;;;;;;;44.15;21.80;;;-2.70;99.90;;;;;;4928309;28;20499;-84
2022/12/13 01:37:35;;;;;;;45.67;23.02;;;-4.00;99.90;;;;;;4944527;28;20481;-85
2022/12/13 01:40:02;;;;;;;48.33;21.98;;;-2.30;99.90;;;;;;4929107;28;20407;-84
2022/12/13 01:42:28;;;;;;;47.90;24.08;;;-2.80;99.90;;;;;;4929206;28;20374;-85
2022/12/13 01:45:00;;;;;;;52.20;23.08;;;-4.00;99.90;;;;;;4960113;28;20077;-85
2022/12/13 01:47:41;;;;;;;42.28;22.48;;;-4.00;99.90;;;;;;4928295;28;20122;-85
2022/12/13 01:50:10;;;;;;;50.33;23.38;;;-4.10;99.90;;;;;;4930480;28;20113;-85
2022/12/13 01:52:36;;;;;;;51.78;23.73;;;-4.10;99.90;;;;;;4928931;28;20043;-85
2022/12/13 01:55:03;;;;;;;51.95;23.55;;;-3.10;99.90;;;;;;4928125;28;20059;-84
2022/12/13 01:57:28;;;;;;;50.75;23.88;;;-4.10;99.90;;;;;;4912517;28;20104;-85
2022/12/13 01:59:54;;;;;;;51.53;22.17;;;-4.20;99.90;;;;;;4944527;28;20434;-85
2022/12/13 02:02:20;;;;;;;53.40;22.70;;;-4.20;99.90;;;;;;4943814;28;20069;-85
2022/12/13 02:05:05;;;;;;;47.80;23.50;;;-4.20;99.90;;;;;;4943749;28;20051;-85
2022/12/13 02:07:32;;;;;;;50.60;23.73;;;-4.20;99.90;;;;;;4945251;28;20042;-84
2022/12/13 02:09:59;;;;;;;47.75;22.33;;;-4.20;99.90;;;;;;4927727;28;20133;-85
2022/12/13 02:12:30;;;;;;;51.50;23.60;;;-4.30;99.90;;;;;;4943566;28;20046;-85
2022/12/13 02:14:59;;;;;;;42.88;23.50;;;-4.30;99.90;;;;;;4928381;28;20061;-84
2022/12/13 02:17:43;;;;;;;52.17;23.40;;;-4.30;99.90;;;;;;4928127;28;20061;-85
2022/12/13 02:20:12;;;;;;;44.00;19.05;;;-4.30;99.90;;;;;;4943680;28;20050;-84
2022/12/13 02:22:40;;;;;;;48.17;23.48;;;-4.30;99.90;;;;;;4959261;28;20046;-84
2022/12/13 02:25:41;;;;;;;52.13;23.38;;;-4.40;99.90;;;;;;4959120;28;20138;-85
2022/12/13 02:28:30;;;;;;;48.88;22.60;;;-4.40;99.90;;;;;;4943655;28;20066;-85
2022/12/13 02:31:38;;;;;;;55.38;24.25;;;-4.40;99.90;;;;;;4958408;28;20094;-84
2022/12/13 02:34:06;;;;;;;43.38;23.38;;;-4.50;99.90;;;;;;4901101;29;20091;-84
2022/12/13 02:36:45;;;;;;;49.95;22.98;;;-4.50;99.90;;;;;;4934380;28;20403;-85
2022/12/13 02:39:22;;;;;;;49.92;21.95;;;-4.60;99.90;;;;;;4928150;28;20042;-85
2022/12/13 02:41:52;;;;;;;48.00;21.98;;;-4.50;99.90;;;;;;4927950;28;20053;-85
2022/12/13 02:44:27;;;;;;;47.47;22.75;;;-4.50;99.90;;;;;;4927794;28;20386;-85
2022/12/13 02:46:58;;;;;;;51.28;21.70;;;-4.60;99.90;;;;;;4958976;28;20130;-84
2022/12/13 02:49:24;;;;;;;51.47;22.92;;;-4.60;99.90;;;;;;4943658;28;20069;-85
2022/12/13 02:51:50;;;;;;;51.05;22.45;;;-4.60;99.90;;;;;;4927691;28;20039;-84
2022/12/13 02:54:16;;;;;;;49.25;22.85;;;-4.70;99.90;;;;;;4911245;28;20043;-85
2022/12/13 02:56:51;;;;;;;46.60;21.67;;;-4.70;99.90;;;;;;4943566;28;20051;-84
2022/12/13 02:59:17;;;;;;;52.08;24.10;;;-4.80;99.90;;;;;;4928091;28;20487;-84
2022/12/13 03:02:04;;;;;;;48.78;23.33;;;-4.70;99.90;;;;;;4926877;28;20046;-85
2022/12/13 03:04:32;;;;;;;49.83;22.90;;;-4.70;99.90;;;;;;4943289;28;20054;-84
2022/12/13 03:07:18;;;;;;;47.58;23.85;;;-4.80;99.90;;;;;;4959020;28;20353;-85
2022/12/13 03:09:54;;;;;;;44.67;21.80;;;-4.80;99.90;;;;;;4943157;28;20078;-85
2022/12/13 03:15:54;;;;;;;50.53;22.40;;;-4.80;99.90;;;;;;4945164;28;20093;-85
2022/12/13 03:18:21;;;;;;;51.17;22.80;;;-4.80;99.90;;;;;;4925839;28;20381;-84
2022/12/13 03:20:58;;;;;;;46.53;22.60;;;-4.80;99.90;;;;;;4910824;28;20061;-84
2022/12/13 03:23:24;;;;;;;48.63;23.48;;;-3.70;99.90;;;;;;4926495;28;20125;-84
2022/12/13 03:26:00;;;;;;;46.58;22.92;;;-4.80;99.90;;;;;;4926951;28;20047;-85
2022/12/13 03:28:26;;;;;;;43.40;22.38;;;-4.80;99.90;;;;;;4927620;28;20086;-84
2022/12/13 03:30:52;;;;;;;54.85;23.23;;;-4.50;99.90;;;;;;4911621;28;20098;-84
2022/12/13 03:33:17;;;;;;;43.20;21.30;;;-4.90;99.90;;;;;;4942977;28;20062;-84
2022/12/13 03:35:43;;;;;;;46.35;22.95;;;-4.90;99.90;;;;;;4942271;28;20121;-84
2022/12/13 03:38:10;;;;;;;53.53;22.58;;;-4.90;99.90;;;;;;4926665;28;20051;-84
2022/12/13 03:40:35;;;;;;;47.08;22.45;;;-4.90;99.90;;;;;;4942943;28;20368;-84
2022/12/13 03:43:01;;;;;;;49.97;23.80;;;-4.90;99.90;;;;;;4926369;28;20069;-84
2022/12/13 03:45:26;;;;;;;49.78;22.95;;;-4.90;99.90;;;;;;4941957;28;20137;-84
2022/12/13 03:47:52;;;;;;;47.58;22.83;;;-4.90;99.90;;;;;;4957786;28;20376;-84
2022/12/13 03:50:18;;;;;;;47.80;22.42;;;-4.90;99.90;;;;;;4926151;28;20046;-84
2022/12/13 03:52:43;;;;;;;52.10;23.60;;;-5.00;99.90;;;;;;4910324;28;20058;-84
2022/12/13 03:55:09;;;;;;;49.42;22.95;;;-4.90;99.90;;;;;;4926021;28;20047;-84
2022/12/13 03:57:35;;;;;;;49.90;22.70;;;-5.00;99.90;;;;;;4941593;28;20039;-85
2022/12/13 04:00:01;;;;;;;47.35;22.40;;;-5.00;99.90;;;;;;4910268;28;20050;-84
2022/12/13 04:02:27;;;;;;;53.10;22.67;;;-3.70;99.90;;;;;;4909985;28;20062;-84
2022/12/13 04:04:52;;;;;;;49.40;23.00;;;-4.70;99.90;;;;;;4941572;28;20039;-85
2022/12/13 04:07:18;;;;;;;49.35;22.75;;;-5.00;99.90;;;;;;4941783;28;20047;-85
2022/12/13 04:09:44;;;;;;;45.92;22.35;;;-5.00;99.90;;;;;;4925911;28;20053;-85
2022/12/13 04:14:53;;;;;;;50.80;24.10;;;-5.00;99.90;;;;;;4944793;28;20101;-84
2022/12/13 04:17:19;;;;;;;50.65;22.95;;;-5.00;99.90;;;;;;4957243;28;20510;-84
2022/12/13 04:19:44;;;;;;;51.28;23.15;;;-5.00;99.90;;;;;;4941869;28;20086;-84
2022/12/13 04:22:10;;;;;;;47.08;21.85;;;-3.70;99.90;;;;;;4925789;28;20450;-84
2022/12/13 04:24:36;;;;;;;49.78;23.33;;;-5.10;99.90;;;;;;4922319;29;20146;-84
2022/12/13 04:27:02;;;;;;;43.35;21.25;;;-5.10;99.90;;;;;;4953787;29;20047;-83
2022/12/13 04:29:28;;;;;;;46.67;22.15;;;-5.10;99.90;;;;;;4924206;29;20118;-85
2022/12/13 04:31:53;;;;;;;42.55;23.45;;;-5.10;99.90;;;;;;4974237;28;20046;-85
2022/12/13 04:34:19;;;;;;;45.35;22.48;;;-5.10;99.90;;;;;;4957902;29;20468;-85
2022/12/13 04:36:45;;;;;;;46.47;22.73;;;-5.10;99.90;;;;;;4941569;29;20460;-84
2022/12/13 04:39:10;;;;;;;44.83;21.95;;;-5.10;99.90;;;;;;4942035;29;20043;-85
2022/12/13 04:41:36;;;;;;;47.55;22.33;;;-5.10;99.90;;;;;;4941909;29;20149;-85
2022/12/13 04:44:02;;;;;;;47.80;23.23;;;-5.10;99.90;;;;;;4926556;29;20054;-85
2022/12/13 04:46:28;;;;;;;46.97;22.55;;;-5.10;99.90;;;;;;4925831;29;20047;-85
2022/12/13 04:48:54;;;;;;;45.45;22.65;;;-5.10;99.90;;;;;;4941864;29;20087;-85
2022/12/13 04:51:19;;;;;;;50.40;23.20;;;-5.10;99.90;;;;;;4958119;29;20074;-85
2022/12/13 04:53:45;;;;;;;43.47;21.73;;;-5.10;99.90;;;;;;4926687;29;20055;-85
2022/12/13 04:56:10;;;;;;;48.05;23.20;;;-3.50;99.90;;;;;;4941873;29;20385;-85
2022/12/13 04:58:36;;;;;;;45.90;22.70;;;-5.20;99.90;;;;;;4925804;29;20058;-85
2022/12/13 05:01:05;;;;;;;50.70;23.23;;;-5.20;99.90;;;;;;4941854;29;20130;-85
2022/12/13 05:03:31;;;;;;;49.47;22.92;;;-5.20;99.90;;;;;;4925812;29;20110;-85
2022/12/13 05:05:57;;;;;;;43.67;22.27;;;-5.10;99.90;;;;;;4925686;29;20040;-85
2022/12/13 05:08:22;;;;;;;47.10;21.88;;;-5.20;99.90;;;;;;4925624;29;20134;-85
2022/12/13 05:10:48;;;;;;;51.67;22.65;;;-5.20;99.90;;;;;;4941798;29;20089;-85
2022/12/13 05:13:13;;;;;;;53.53;23.08;;;-4.90;99.90;;;;;;4957535;29;20500;-85
2022/12/13 05:15:39;;;;;;;49.72;23.20;;;-5.20;99.90;;;;;;4957448;29;20122;-85
2022/12/13 05:18:05;;;;;;;50.28;24.15;;;-5.20;99.90;;;;;;4957367;29;20107;-85
2022/12/13 05:20:32;;;;;;;49.60;22.60;;;-5.20;99.90;;;;;;4909631;29;20051;-84
2022/12/13 05:22:58;;;;;;;44.75;22.33;;;-3.90;99.90;;;;;;4926000;28;20141;-85
2022/12/13 05:25:24;;;;;;;48.13;22.70;;;-5.30;99.90;;;;;;4944562;28;20114;-85
2022/12/13 05:27:50;;;;;;;47.08;22.20;;;-5.30;99.90;;;;;;4960038;28;20046;-85
2022/12/13 05:30:16;;;;;;;44.10;23.23;;;-5.20;99.90;;;;;;4928814;28;20065;-85
2022/12/13 05:32:41;;;;;;;43.42;22.23;;;-5.20;99.90;;;;;;4960249;28;20098;-85
2022/12/13 05:35:07;;;;;;;49.58;24.42;;;-5.30;99.90;;;;;;4928805;28;20046;-85
2022/12/13 05:37:33;;;;;;;52.40;22.75;;;-5.30;99.90;;;;;;4913250;28;20047;-85
2022/12/13 05:39:59;;;;;;;45.88;22.25;;;-5.30;99.90;;;;;;4944943;28;20050;-85
2022/12/13 05:42:24;;;;;;;46.38;23.58;;;-5.30;99.90;;;;;;4928606;28;20133;-85
2022/12/13 05:44:53;;;;;;;45.13;23.30;;;-5.30;99.90;;;;;;4913003;28;20050;-84
2022/12/13 05:47:19;;;;;;;50.00;23.20;;;-5.30;99.90;;;;;;4944687;28;20042;-85
2022/12/13 05:49:44;;;;;;;51.80;24.13;;;-5.30;99.90;;;;;;4929332;28;20046;-85
2022/12/13 05:52:20;;;;;;;49.92;23.63;;;-5.30;99.90;;;;;;4943986;28;20046;-85
2022/12/13 05:54:45;;;;;;;50.38;23.20;;;-5.30;99.90;;;;;;4928870;28;20054;-85
2022/12/13 05:57:11;;;;;;;52.85;24.15;;;-5.30;99.90;;;;;;4929237;28;20050;-85
2022/12/13 05:59:37;;;;;;;49.95;23.52;;;-5.20;99.90;;;;;;4944636;28;20407;-85
2022/12/13 06:02:02;;;;;;;58.22;25.08;;;-5.20;99.90;;;;;;4929444;28;20050;-85
2022/12/13 06:04:28;;;;;;;54.88;25.20;;;-5.20;99.90;;;;;;4944988;28;20097;-85
2022/12/13 06:06:53;;;;;;;53.97;24.00;;;-5.20;99.90;;;;;;4944906;28;20039;-85
2022/12/13 06:09:20;;;;;;;53.88;25.52;;;-5.20;99.90;;;;;;4928663;28;20049;-85
2022/12/13 06:11:45;;;;;;;59.58;26.20;;;-5.10;99.90;;;;;;4912876;28;20145;-85
2022/12/13 06:14:11;;;;;;;52.97;25.15;;;-5.10;99.90;;;;;;4944223;28;20085;-85
2022/12/13 06:16:38;;;;;;;58.47;26.02;;;-5.10;99.90;;;;;;4928964;28;20139;-85
2022/12/13 06:19:03;;;;;;;59.03;26.20;;;-5.10;99.90;;;;;;4929147;28;20078;-85
2022/12/13 06:21:32;;;;;;;54.92;24.45;;;-5.10;99.90;;;;;;4943333;28;20109;-85
2022/12/13 06:23:58;;;;;;;61.13;26.55;;;-5.10;99.90;;;;;;4912328;28;20090;-85
2022/12/13 06:26:24;;;;;;;58.10;26.98;;;-4.80;99.90;;;;;;4927639;28;20042;-85
2022/12/13 06:28:49;;;;;;;57.80;25.95;;;-5.10;99.90;;;;;;4943518;28;20053;-85
2022/12/13 06:31:15;;;;;;;59.90;26.75;;;-4.50;99.90;;;;;;4943647;28;20043;-85
2022/12/13 06:33:41;;;;;;;56.28;26.20;;;-5.10;99.90;;;;;;4927508;28;20050;-85
2022/12/13 06:36:07;;;;;;;61.05;26.85;;;-5.10;99.90;;;;;;4943841;28;20050;-85
2022/12/13 06:38:32;;;;;;;58.63;27.85;;;-5.20;99.90;;;;;;4943625;28;20050;-85
2022/12/13 06:41:08;;;;;;;62.10;26.48;;;-5.20;99.90;;;;;;4927701;28;20061;-85
2022/12/13 06:43:34;;;;;;;61.00;27.35;;;-5.20;99.90;;;;;;4943509;28;20129;-85
2022/12/13 06:46:03;;;;;;;64.72;27.10;;;-5.20;99.90;;;;;;4943290;28;20603;-84
2022/12/13 06:48:28;;;;;;;65.13;28.42;;;-5.20;99.90;;;;;;4943519;28;20502;-85
2022/12/13 06:50:54;;;;;;;61.05;27.85;;;-5.20;99.90;;;;;;4943127;28;20126;-85
2022/12/13 06:53:20;;;;;;;62.55;27.35;;;-5.30;99.90;;;;;;4942188;28;20086;-84
2022/12/13 06:55:45;;;;;;;58.63;27.17;;;-3.90;99.90;;;;;;4943126;28;20058;-84
2022/12/13 06:58:11;;;;;;;63.65;27.83;;;-5.30;99.90;;;;;;4942655;28;20047;-84
2022/12/13 07:00:37;;;;;;;64.97;27.90;;;-5.30;99.90;;;;;;4926532;28;20046;-85
2022/12/13 07:03:02;;;;;;;63.63;27.38;;;-5.30;99.90;;;;;;4942685;28;20039;-84
2022/12/13 07:05:28;;;;;;;58.83;27.20;;;-5.30;99.90;;;;;;4928139;28;20043;-85
2022/12/13 07:07:54;;;;;;;62.35;26.33;;;-6.70;99.90;;;;;;4927012;28;20147;-85
2022/12/13 07:10:20;;;;;;;58.95;27.05;;;-5.30;99.90;;;;;;4943001;28;20046;-86
2022/12/13 07:12:46;;;;;;;69.28;29.25;;;-5.30;99.90;;;;;;4958761;28;20085;-85
2022/12/13 07:15:11;;;;;;;70.03;29.00;;;-5.30;99.90;;;;;;4943250;28;20043;-85
2022/12/13 07:17:37;;;;;;;65.88;27.65;;;-5.30;99.90;;;;;;4942856;28;20445;-85
2022/12/13 07:20:06;;;;;;;64.50;27.70;;;-5.30;99.90;;;;;;4943274;28;20462;-86
2022/12/13 07:22:32;;;;;;;64.13;27.17;;;-5.30;99.90;;;;;;4927609;28;20085;-85
2022/12/13 07:24:57;;;;;;;69.40;28.80;;;-5.30;99.90;;;;;;4942056;28;20503;-86
2022/12/13 07:27:23;;;;;;;65.68;30.00;;;-5.30;99.90;;;;;;4942486;28;20093;-85
2022/12/13 07:29:49;;;;;;;70.25;29.85;;;-5.30;99.90;;;;;;4958856;28;20185;-84
2022/12/13 07:32:14;;;;;;;67.93;28.65;;;-5.30;99.90;;;;;;4942106;28;20058;-84
2022/12/13 07:34:40;;;;;;;69.63;27.52;;;-5.20;99.90;;;;;;4958567;28;20047;-83
2022/12/13 07:37:07;;;;;;;70.70;30.30;;;-5.20;99.90;;;;;;4927041;28;20489;-83
2022/12/13 07:39:33;;;;;;;67.82;29.17;;;-5.10;99.90;;;;;;4926301;28;20061;-84
2022/12/13 07:41:58;;;;;;;68.28;29.63;;;-5.10;99.90;;;;;;4942277;28;20055;-84
2022/12/13 07:44:24;;;;;;;71.47;28.52;;;-4.80;99.90;;;;;;4942497;28;20047;-85
2022/12/13 07:46:49;;;;;;;77.55;28.52;;;-5.00;99.90;;;;;;4926220;28;20051;-85
2022/12/13 07:49:15;;;;;;;62.67;28.65;;;-4.80;99.90;;;;;;4927355;28;20050;-85
2022/12/13 07:51:41;;;;;;;65.38;27.13;;;-5.00;99.90;;;;;;4959617;28;20141;-84
2022/12/13 07:54:07;;;;;;;67.75;28.58;;;-4.90;99.90;;;;;;4943035;28;20491;-84
2022/12/13 07:56:36;;;;;;;62.55;26.63;;;-4.90;99.90;;;;;;4942049;28;20062;-85
2022/12/13 07:59:08;;;;;;;63.78;28.20;;;-4.90;99.90;;;;;;4941997;28;20498;-84
2022/12/13 08:01:33;;;;;;;70.40;28.27;;;-4.80;99.90;;;;;;4926564;28;20059;-84
2022/12/13 08:04:00;;;;;;;69.35;29.33;;;-4.80;99.90;;;;;;4925877;28;20098;-80
2022/12/13 08:06:26;;;;;;;70.38;29.42;;;-4.80;99.90;;;;;;4941633;28;20042;-82
2022/12/13 08:08:57;;;;;;;61.17;29.38;;;-4.70;99.90;;;;;;4942518;28;20051;-86
2022/12/13 08:11:23;;;;;;;68.28;27.98;;;-4.70;99.90;;;;;;4942516;28;20138;-84
2022/12/13 08:13:49;;;;;;;65.85;28.50;;;-4.70;99.90;;;;;;4926166;28;20137;-84
2022/12/13 08:16:16;;;;;;;70.60;28.38;;;-4.60;99.90;;;;;;4925782;28;20082;-86
2022/12/13 08:18:43;;;;;;;68.70;28.92;;;-4.60;99.90;;;;;;4941902;28;20047;-84
2022/12/13 08:21:09;;;;;;;66.63;28.60;;;-4.50;99.90;;;;;;4941545;28;20566;-82
2022/12/13 08:23:35;;;;;;;71.57;28.90;;;-4.50;99.90;;;;;;4925563;28;20194;-84
2022/12/13 08:26:01;;;;;;;63.25;27.52;;;-4.50;99.90;;;;;;4957542;28;20054;-83
2022/12/13 08:28:27;;;;;;;72.55;28.15;;;-4.40;99.90;;;;;;4941635;28;20545;-83
2022/12/13 08:30:53;;;;;;;68.80;29.60;;;-3.60;99.90;;;;;;4925994;28;20051;-82
2022/12/13 08:33:19;;;;;;;74.85;28.95;;;-4.10;99.90;;;;;;4926237;28;20047;-82
2022/12/13 08:35:44;;;;;;;64.43;28.70;;;-3.70;99.90;;;;;;4941664;28;20043;-82
2022/12/13 08:38:10;;;;;;;70.55;29.88;;;-3.90;99.90;;;;;;4925608;28;20046;-83
2022/12/13 08:40:36;;;;;;;69.05;29.75;;;-3.80;99.90;;;;;;4925540;28;20043;-82
2022/12/13 08:43:02;;;;;;;65.35;28.27;;;-3.60;99.90;;;;;;4942383;28;20047;-85
2022/12/13 08:45:28;;;;;;;68.22;28.85;;;-3.40;99.90;;;;;;4941937;28;20168;-84
2022/12/13 08:47:55;;;;;;;64.60;29.13;;;-2.60;99.90;;;;;;4926164;28;20050;-85
2022/12/13 08:50:21;;;;;;;68.90;29.02;;;-2.30;99.90;;;;;;4926419;28;20058;-84
2022/12/13 08:52:47;;;;;;;62.13;26.70;;;-2.40;99.90;;;;;;4942216;28;20047;-84
2022/12/13 08:55:14;;;;;;;61.47;28.20;;;-1.80;99.90;;;;;;4957427;28;20074;-87
2022/12/13 08:57:41;;;;;;;64.68;28.98;;;-0.30;99.90;;;;;;4925371;28;20054;-87
2022/12/13 09:00:10;;;;;;;53.10;26.52;;;-0.10;99.90;;;;;;4925866;28;20137;-87
2022/12/13 09:02:36;;;;;;;54.67;27.35;;;-0.60;99.90;;;;;;4926546;28;20102;-84
2022/12/13 09:05:02;;;;;;;54.88;26.52;;;-0.10;99.90;;;;;;4925551;28;20043;-86
2022/12/13 09:07:28;;;;;;;52.67;26.42;;;-0.30;99.90;;;;;;4956762;28;20050;-86
2022/12/13 09:09:53;;;;;;;49.58;25.52;;;0.60;99.90;;;;;;4925420;28;20047;-85
2022/12/13 09:12:19;;;;;;;52.20;25.30;;;-0.30;99.90;;;;;;4940737;28;20138;-86
2022/12/13 09:14:45;;;;;;;51.60;25.25;;;-0.30;99.90;;;;;;4941018;28;20138;-84
2022/12/13 09:17:12;;;;;;;54.33;24.88;;;-0.20;99.90;;;;;;4944480;28;20126;-85
2022/12/13 09:19:37;;;;;;;50.55;23.42;;;0.80;99.90;;;;;;4944798;28;20047;-86
2022/12/13 09:22:04;;;;;;;53.03;24.80;;;-0.50;99.90;;;;;;4929429;28;20062;-86
2022/12/13 09:24:29;;;;;;;49.28;23.85;;;0.00;99.90;;;;;;4944743;28;20062;-84
2022/12/13 09:26:55;;;;;;;53.63;23.10;;;0.80;99.90;;;;;;4944397;28;20049;-85
2022/12/13 09:29:21;;;;;;;50.35;25.13;;;0.30;99.90;;;;;;4944315;28;20051;-84
2022/12/13 09:31:46;;;;;;;49.95;24.08;;;-0.90;99.90;;;;;;4944551;28;20089;-83
2022/12/13 09:34:12;;;;;;;50.25;25.67;;;0.40;99.90;;;;;;4944408;28;20050;-85
2022/12/13 09:36:37;;;;;;;49.00;23.88;;;-0.30;99.90;;;;;;4944574;28;20062;-87
2022/12/13 09:39:03;;;;;;;57.05;25.75;;;0.40;99.90;;;;;;4944515;28;20047;-86
2022/12/13 09:41:39;;;;;;;54.05;26.20;;;-1.00;99.90;;;;;;4944498;28;20105;-84
2022/12/13 09:44:10;;;;;;;58.45;27.05;;;-0.90;99.90;;;;;;4944723;28;20047;-82
2022/12/13 09:46:41;;;;;;;59.28;25.73;;;-0.70;99.90;;;;;;4929197;28;20061;-82
2022/12/13 09:49:15;;;;;;;55.45;26.27;;;-0.30;99.90;;;;;;4929199;28;20065;-82
2022/12/13 09:51:41;;;;;;;51.15;25.60;;;-1.00;99.90;;;;;;4944659;28;20455;-81
2022/12/13 09:54:06;;;;;;;57.42;26.98;;;-0.30;99.90;;;;;;4959792;28;20042;-82
2022/12/13 09:56:32;;;;;;;51.80;25.58;;;-1.20;99.90;;;;;;4928277;28;20398;-83
2022/12/13 09:58:58;;;;;;;56.70;27.02;;;-0.20;99.90;;;;;;4960230;28;20360;-84
2022/12/13 10:01:23;;;;;;;56.63;26.58;;;-1.30;99.90;;;;;;4960476;28;20051;-83
2022/12/13 10:03:51;;;;;;;56.38;26.20;;;-1.30;99.90;;;;;;4959884;28;20082;-81
2022/12/13 10:06:21;;;;;;;58.03;26.58;;;-1.30;99.90;;;;;;4943594;28;20463;-83
2022/12/13 10:08:48;;;;;;;59.55;28.45;;;-1.20;99.90;;;;;;4944078;28;20051;-82
2022/12/13 10:11:15;;;;;;;58.80;27.75;;;-1.00;99.90;;;;;;4928040;28;20062;-82
2022/12/13 10:14:00;;;;;;;65.93;29.10;;;-0.90;99.90;;;;;;4912343;28;20057;-81
2022/12/13 10:16:34;;;;;;;;;;;-0.90;99.90;;;;;;4930227;28;20054;-82
2022/12/13 10:19:22;;;;;;;58.70;28.17;;;-0.90;99.90;;;;;;4959538;28;19929;-85
2022/12/13 10:21:47;;;;;;;56.33;26.75;;;0.20;99.90;;;;;;4933882;28;20061;-84
2022/12/13 10:24:20;;;;;;;57.75;28.08;;;0.40;99.90;;;;;;4911397;28;20058;-84
2022/12/13 10:26:46;;;;;;;56.70;27.67;;;-1.10;99.90;;;;;;4943773;28;20413;-84
2022/12/13 10:29:11;;;;;;;52.58;25.92;;;-1.20;99.90;;;;;;4928014;28;20113;-84
2022/12/13 10:31:47;;;;;;;57.10;26.73;;;-1.50;99.90;;;;;;4943624;28;20058;-83
2022/12/13 10:34:27;;;;;;;60.92;28.50;;;-0.60;99.90;;;;;;4929037;28;20443;-83
2022/12/13 10:36:53;;;;;;;56.28;25.95;;;-1.00;99.90;;;;;;4927721;28;20134;-85
2022/12/13 10:39:41;;;;;;;56.47;27.27;;;0.00;99.90;;;;;;4927618;28;20082;-84
2022/12/13 10:42:13;;;;;;;50.88;25.58;;;-1.10;99.90;;;;;;4928575;28;20530;-84
2022/12/13 10:44:39;;;;;;;53.65;26.40;;;-0.70;99.90;;;;;;4927512;28;20057;-83
2022/12/13 10:47:14;;;;;;;54.25;25.20;;;-1.00;99.90;;;;;;4942843;28;20039;-84
2022/12/13 10:49:52;;;;;;;56.67;26.95;;;-1.10;99.90;;;;;;4927595;28;20043;-81
2022/12/13 10:52:23;;;;;;;52.53;26.02;;;-1.10;99.90;;;;;;4943659;28;20051;-83
2022/12/13 10:54:49;;;;;;;50.92;25.33;;;-0.90;99.90;;;;;;4944123;28;20061;-82
2022/12/13 10:57:15;;;;;;;54.72;26.20;;;-0.40;99.90;;;;;;4936137;28;20078;-81
2022/12/13 10:59:41;;;;;;;54.95;25.70;;;-1.00;99.90;;;;;;4945633;28;20085;-83
2022/12/13 11:02:32;;;;;;;50.10;24.88;;;0.00;99.90;;;;;;4926617;28;20046;-83
2022/12/13 11:04:58;;;;;;;55.65;27.23;;;-1.00;99.90;;;;;;4959627;28;20113;-83
2022/12/13 11:07:29;;;;;;;54.17;26.38;;;0.20;99.90;;;;;;4926929;28;20047;-83
2022/12/13 11:09:55;;;;;;;56.35;26.48;;;-1.00;99.90;;;;;;4943040;28;20122;-83
2022/12/13 11:12:23;;;;;;;48.80;25.50;;;-0.10;99.90;;;;;;4927019;28;20134;-81
2022/12/13 11:14:58;;;;;;;55.83;26.83;;;-0.90;99.90;;;;;;4943112;28;20058;-82
2022/12/13 11:17:26;;;;;;;57.85;26.75;;;-0.90;99.90;;;;;;4958881;28;20506;-81
2022/12/13 11:19:55;;;;;;;55.85;26.25;;;-0.20;99.90;;;;;;4958754;28;20082;-81
2022/12/13 11:22:28;;;;;;;56.08;26.85;;;-0.80;99.90;;;;;;4911993;28;20059;-81
2022/12/13 11:25:19;;;;;;;55.63;27.10;;;0.40;99.90;;;;;;4911321;28;20051;-81
2022/12/13 11:27:51;;;;;;;51.55;25.75;;;0.60;99.90;;;;;;4935287;28;20047;-83
2022/12/13 11:30:34;;;;;;;47.72;24.45;;;0.20;99.90;;;;;;4943180;28;20133;-81
2022/12/13 11:33:26;;;;;;;53.30;25.40;;;-0.50;99.90;;;;;;4927556;28;20050;-81
2022/12/13 11:36:00;;;;;;;45.95;25.08;;;-0.40;99.90;;;;;;4942948;28;20050;-81
2022/12/13 11:38:49;;;;;;;50.75;25.25;;;-0.50;99.90;;;;;;4957959;28;20106;-81
2022/12/13 11:41:27;;;;;;;50.55;23.70;;;-0.30;99.90;;;;;;4926417;28;20058;-82
2022/12/13 11:43:56;;;;;;;50.20;24.75;;;-0.20;99.90;;;;;;4911614;28;20047;-81
2022/12/13 11:46:33;;;;;;;50.47;24.42;;;-0.20;99.90;;;;;;4926613;28;20129;-83
2022/12/13 11:49:00;;;;;;;49.67;25.02;;;-0.20;99.90;;;;;;4927378;28;20058;-82
2022/12/13 11:51:33;;;;;;;50.28;24.23;;;-0.20;99.90;;;;;;4910234;28;20113;-83
2022/12/13 11:54:13;;;;;;;47.75;23.60;;;-0.10;99.90;;;;;;4927586;28;20050;-83
2022/12/13 11:56:42;;;;;;;48.55;23.85;;;-0.10;99.90;;;;;;4911249;28;20069;-83
2022/12/13 11:59:23;;;;;;;48.15;25.27;;;0.20;99.90;;;;;;4910848;28;20055;-82
2022/12/13 12:01:54;;;;;;;46.95;24.27;;;0.00;99.90;;;;;;4942707;28;20054;-82
2022/12/13 12:04:52;;;;;;;48.10;25.08;;;0.00;99.90;;;;;;4910540;28;20050;-83
2022/12/13 12:07:42;;;;;;;46.50;23.75;;;0.00;99.90;;;;;;4938712;28;20055;-82
2022/12/13 12:10:23;;;;;;;44.63;22.35;;;0.00;99.90;;;;;;4941712;28;20050;-81
2022/12/13 12:12:53;;;;;;;43.10;22.40;;;0.00;99.90;;;;;;4942897;28;20050;-81
2022/12/13 12:15:30;;;;;;;43.20;21.92;;;1.40;99.90;;;;;;4910399;28;20062;-81
2022/12/13 12:17:55;;;;;;;44.30;22.45;;;1.20;99.90;;;;;;4925909;28;20055;-82
2022/12/13 12:20:51;;;;;;;41.58;21.48;;;0.10;99.90;;;;;;4910874;28;20058;-82
2022/12/13 12:23:58;;;;;;;41.05;21.92;;;0.10;99.90;;;;;;4955225;28;20390;-83
2022/12/13 12:26:30;;;;;;;50.13;24.23;;;0.10;99.90;;;;;;4953875;29;20063;-82
2022/12/13 12:29:14;;;;;;;41.35;22.20;;;0.00;99.90;;;;;;4923654;29;20054;-82
2022/12/13 12:31:46;;;;;;;;;;;0.10;99.90;;;;;;4954431;29;20055;-82
2022/12/13 12:34:31;;;;;;;42.00;21.85;;;0.00;99.90;;;;;;4954422;29;20370;-82
2022/12/13 12:37:06;;;;;;;;;;;0.00;99.90;;;;;;4910264;29;20151;-83
2022/12/13 12:39:41;;;;;;;41.05;20.60;;;0.00;99.90;;;;;;4922751;29;19929;-83
2022/12/13 12:42:06;;;;;;;43.95;22.70;;;0.00;99.90;;;;;;4924247;29;20098;-83
2022/12/13 12:44:47;;;;;;;43.08;22.48;;;-0.10;99.90;;;;;;4939187;29;20051;-83